sensor_id;sensor_type;location;lat;lon;timestamp;P1;durP1;ratioP1;P2;durP2;ratioP2
76597;SDS011;65486;53.144;18.134;2023-08-07T00:00:25;2.10;;;0.90;;
76597;SDS011;65486;53.144;18.134;2023-08-07T00:03:12;2.80;;;1.10;;
76597;SDS011;65486;53.144;18.134;2023-08-07T00:05:46;2.30;;;1.30;;
76597;SDS011;65486;53.144;18.134;2023-08-07T00:08:13;1.50;;;0.90;;
76597;SDS011;65486;53.144;18.134;2023-08-07T00:10:40;1.70;;;0.90;;
76597;SDS011;65486;53.144;18.134;2023-08-07T00:13:06;1.50;;;0.80;;
76597;SDS011;65486;53.144;18.134;2023-08-07T00:15:32;2.90;;;0.80;;
76597;SDS011;65486;53.144;18.134;2023-08-07T00:18:01;2.50;;;0.90;;
76597;SDS011;65486;53.144;18.134;2023-08-07T00:20:27;1.70;;;0.80;;
76597;SDS011;65486;53.144;18.134;2023-08-07T00:22:54;2.60;;;1.10;;
76597;SDS011;65486;53.144;18.134;2023-08-07T00:25:20;1.90;;;1.20;;
76597;SDS011;65486;53.144;18.134;2023-08-07T00:27:46;2.20;;;0.90;;
76597;SDS011;65486;53.144;18.134;2023-08-07T00:30:14;1.70;;;1.00;;
76597;SDS011;65486;53.144;18.134;2023-08-07T00:32:41;2.20;;;1.00;;
76597;SDS011;65486;53.144;18.134;2023-08-07T00:35:09;1.70;;;0.70;;
76597;SDS011;65486;53.144;18.134;2023-08-07T00:37:36;1.60;;;1.00;;
76597;SDS011;65486;53.144;18.134;2023-08-07T00:40:04;3.10;;;0.80;;
76597;SDS011;65486;53.144;18.134;2023-08-07T00:42:32;5.60;;;1.00;;
76597;SDS011;65486;53.144;18.134;2023-08-07T00:45:03;3.00;;;1.20;;
76597;SDS011;65486;53.144;18.134;2023-08-07T00:47:35;3.80;;;1.00;;
76597;SDS011;65486;53.144;18.134;2023-08-07T00:50:04;2.10;;;1.00;;
76597;SDS011;65486;53.144;18.134;2023-08-07T00:52:31;1.80;;;1.00;;
76597;SDS011;65486;53.144;18.134;2023-08-07T00:54:58;2.30;;;1.10;;
76597;SDS011;65486;53.144;18.134;2023-08-07T00:57:25;3.00;;;1.60;;
76597;SDS011;65486;53.144;18.134;2023-08-07T00:59:51;2.80;;;1.20;;
76597;SDS011;65486;53.144;18.134;2023-08-07T01:02:18;3.30;;;1.50;;
76597;SDS011;65486;53.144;18.134;2023-08-07T01:04:46;2.30;;;1.20;;
76597;SDS011;65486;53.144;18.134;2023-08-07T01:07:12;3.60;;;1.50;;
76597;SDS011;65486;53.144;18.134;2023-08-07T01:09:39;3.60;;;1.50;;
76597;SDS011;65486;53.144;18.134;2023-08-07T01:12:15;2.90;;;1.40;;
76597;SDS011;65486;53.144;18.134;2023-08-07T01:14:55;2.20;;;1.30;;
76597;SDS011;65486;53.144;18.134;2023-08-07T01:17:30;5.30;;;1.40;;
76597;SDS011;65486;53.144;18.134;2023-08-07T01:20:01;2.10;;;1.40;;
76597;SDS011;65486;53.144;18.134;2023-08-07T01:22:30;3.70;;;1.60;;
76597;SDS011;65486;53.144;18.134;2023-08-07T01:24:56;2.00;;;1.20;;
76597;SDS011;65486;53.144;18.134;2023-08-07T01:27:26;2.00;;;1.20;;
76597;SDS011;65486;53.144;18.134;2023-08-07T01:35:01;1.90;;;1.20;;
76597;SDS011;65486;53.144;18.134;2023-08-07T01:37:35;2.60;;;1.00;;
76597;SDS011;65486;53.144;18.134;2023-08-07T01:40:04;2.00;;;1.10;;
76597;SDS011;65486;53.144;18.134;2023-08-07T01:42:38;2.30;;;1.20;;
76597;SDS011;65486;53.144;18.134;2023-08-07T01:45:05;2.60;;;0.90;;
76597;SDS011;65486;53.144;18.134;2023-08-07T01:47:33;1.90;;;1.00;;
76597;SDS011;65486;53.144;18.134;2023-08-07T01:50:00;1.50;;;0.90;;
76597;SDS011;65486;53.144;18.134;2023-08-07T01:52:27;3.00;;;0.90;;
76597;SDS011;65486;53.144;18.134;2023-08-07T01:54:53;3.70;;;0.80;;
76597;SDS011;65486;53.144;18.134;2023-08-07T01:57:20;1.10;;;0.70;;
76597;SDS011;65486;53.144;18.134;2023-08-07T01:59:46;2.10;;;0.90;;
76597;SDS011;65486;53.144;18.134;2023-08-07T02:02:12;1.60;;;0.70;;
76597;SDS011;65486;53.144;18.134;2023-08-07T02:04:40;1.30;;;0.60;;
76597;SDS011;65486;53.144;18.134;2023-08-07T02:07:06;2.60;;;0.90;;
76597;SDS011;65486;53.144;18.134;2023-08-07T02:09:32;1.30;;;0.70;;
76597;SDS011;65486;53.144;18.134;2023-08-07T02:12:00;1.70;;;0.60;;
76597;SDS011;65486;53.144;18.134;2023-08-07T02:14:27;1.70;;;0.70;;
76597;SDS011;65486;53.144;18.134;2023-08-07T02:16:53;1.70;;;0.70;;
76597;SDS011;65486;53.144;18.134;2023-08-07T02:19:19;1.50;;;0.80;;
76597;SDS011;65486;53.144;18.134;2023-08-07T02:21:46;1.60;;;0.70;;
76597;SDS011;65486;53.144;18.134;2023-08-07T02:24:12;1.50;;;0.60;;
76597;SDS011;65486;53.144;18.134;2023-08-07T02:26:39;1.50;;;0.80;;
76597;SDS011;65486;53.144;18.134;2023-08-07T02:29:05;1.00;;;0.60;;
76597;SDS011;65486;53.144;18.134;2023-08-07T02:31:33;1.10;;;0.70;;
76597;SDS011;65486;53.144;18.134;2023-08-07T02:33:59;2.00;;;0.70;;
76597;SDS011;65486;53.144;18.134;2023-08-07T02:36:26;1.00;;;0.70;;
76597;SDS011;65486;53.144;18.134;2023-08-07T02:38:52;1.70;;;0.50;;
76597;SDS011;65486;53.144;18.134;2023-08-07T02:41:20;1.30;;;0.70;;
76597;SDS011;65486;53.144;18.134;2023-08-07T02:43:46;0.70;;;0.40;;
76597;SDS011;65486;53.144;18.134;2023-08-07T02:46:13;1.10;;;0.60;;
76597;SDS011;65486;53.144;18.134;2023-08-07T02:48:39;1.30;;;0.70;;
76597;SDS011;65486;53.144;18.134;2023-08-07T02:51:09;1.70;;;0.60;;
76597;SDS011;65486;53.144;18.134;2023-08-07T02:53:43;1.20;;;0.60;;
76597;SDS011;65486;53.144;18.134;2023-08-07T02:56:09;1.30;;;0.60;;
76597;SDS011;65486;53.144;18.134;2023-08-07T02:58:36;2.40;;;0.90;;
76597;SDS011;65486;53.144;18.134;2023-08-07T03:01:05;1.20;;;0.60;;
76597;SDS011;65486;53.144;18.134;2023-08-07T03:03:32;1.20;;;0.60;;
76597;SDS011;65486;53.144;18.134;2023-08-07T03:05:58;1.40;;;0.70;;
76597;SDS011;65486;53.144;18.134;2023-08-07T03:08:25;1.70;;;0.70;;
76597;SDS011;65486;53.144;18.134;2023-08-07T03:10:52;1.20;;;0.60;;
76597;SDS011;65486;53.144;18.134;2023-08-07T03:13:19;1.10;;;0.50;;
76597;SDS011;65486;53.144;18.134;2023-08-07T03:15:49;1.70;;;0.60;;
76597;SDS011;65486;53.144;18.134;2023-08-07T03:18:16;1.60;;;0.80;;
76597;SDS011;65486;53.144;18.134;2023-08-07T03:20:44;2.40;;;0.50;;
76597;SDS011;65486;53.144;18.134;2023-08-07T03:23:11;1.70;;;0.70;;
76597;SDS011;65486;53.144;18.134;2023-08-07T03:25:37;1.20;;;0.50;;
76597;SDS011;65486;53.144;18.134;2023-08-07T03:28:04;1.20;;;0.50;;
76597;SDS011;65486;53.144;18.134;2023-08-07T03:30:30;1.10;;;0.60;;
76597;SDS011;65486;53.144;18.134;2023-08-07T03:32:56;1.20;;;0.50;;
76597;SDS011;65486;53.144;18.134;2023-08-07T03:35:24;1.00;;;0.60;;
76597;SDS011;65486;53.144;18.134;2023-08-07T03:37:51;2.00;;;0.60;;
76597;SDS011;65486;53.144;18.134;2023-08-07T03:40:17;0.90;;;0.50;;
76597;SDS011;65486;53.144;18.134;2023-08-07T03:42:44;1.20;;;0.50;;
76597;SDS011;65486;53.144;18.134;2023-08-07T03:45:11;2.50;;;0.70;;
76597;SDS011;65486;53.144;18.134;2023-08-07T03:47:38;1.30;;;0.70;;
76597;SDS011;65486;53.144;18.134;2023-08-07T03:50:04;1.80;;;0.70;;
76597;SDS011;65486;53.144;18.134;2023-08-07T03:52:31;2.00;;;0.70;;
76597;SDS011;65486;53.144;18.134;2023-08-07T03:54:58;1.50;;;0.70;;
76597;SDS011;65486;53.144;18.134;2023-08-07T03:57:24;0.90;;;0.60;;
76597;SDS011;65486;53.144;18.134;2023-08-07T03:59:51;2.40;;;0.80;;
76597;SDS011;65486;53.144;18.134;2023-08-07T04:02:17;1.20;;;0.60;;
76597;SDS011;65486;53.144;18.134;2023-08-07T04:04:44;1.80;;;0.50;;
76597;SDS011;65486;53.144;18.134;2023-08-07T04:07:11;1.60;;;0.70;;
76597;SDS011;65486;53.144;18.134;2023-08-07T04:09:37;1.40;;;0.60;;
76597;SDS011;65486;53.144;18.134;2023-08-07T04:12:03;1.50;;;0.80;;
76597;SDS011;65486;53.144;18.134;2023-08-07T04:14:34;1.10;;;0.60;;
76597;SDS011;65486;53.144;18.134;2023-08-07T04:17:00;1.20;;;0.70;;
76597;SDS011;65486;53.144;18.134;2023-08-07T04:19:26;2.00;;;0.90;;
76597;SDS011;65486;53.144;18.134;2023-08-07T04:21:53;1.20;;;0.70;;
76597;SDS011;65486;53.144;18.134;2023-08-07T04:24:20;1.40;;;0.80;;
76597;SDS011;65486;53.144;18.134;2023-08-07T04:26:46;1.70;;;0.70;;
76597;SDS011;65486;53.144;18.134;2023-08-07T04:29:13;1.60;;;0.70;;
76597;SDS011;65486;53.144;18.134;2023-08-07T04:31:40;1.20;;;0.70;;
76597;SDS011;65486;53.144;18.134;2023-08-07T04:34:07;1.30;;;0.80;;
76597;SDS011;65486;53.144;18.134;2023-08-07T04:36:33;1.30;;;0.70;;
76597;SDS011;65486;53.144;18.134;2023-08-07T04:38:59;1.20;;;0.80;;
76597;SDS011;65486;53.144;18.134;2023-08-07T04:41:29;1.50;;;0.60;;
76597;SDS011;65486;53.144;18.134;2023-08-07T04:43:55;1.70;;;0.80;;
76597;SDS011;65486;53.144;18.134;2023-08-07T04:46:23;1.40;;;0.70;;
76597;SDS011;65486;53.144;18.134;2023-08-07T04:48:49;1.60;;;0.80;;
76597;SDS011;65486;53.144;18.134;2023-08-07T04:51:25;1.70;;;0.90;;
76597;SDS011;65486;53.144;18.134;2023-08-07T04:53:55;1.80;;;0.80;;
76597;SDS011;65486;53.144;18.134;2023-08-07T04:56:23;2.70;;;0.70;;
76597;SDS011;65486;53.144;18.134;2023-08-07T04:58:49;1.50;;;0.90;;
76597;SDS011;65486;53.144;18.134;2023-08-07T05:01:18;1.60;;;0.80;;
76597;SDS011;65486;53.144;18.134;2023-08-07T05:03:44;2.50;;;1.10;;
76597;SDS011;65486;53.144;18.134;2023-08-07T05:06:10;2.70;;;0.90;;
76597;SDS011;65486;53.144;18.134;2023-08-07T05:08:37;1.80;;;0.90;;
76597;SDS011;65486;53.144;18.134;2023-08-07T05:11:05;2.10;;;1.00;;
76597;SDS011;65486;53.144;18.134;2023-08-07T05:13:32;1.30;;;0.70;;
76597;SDS011;65486;53.144;18.134;2023-08-07T05:15:59;1.50;;;0.90;;
76597;SDS011;65486;53.144;18.134;2023-08-07T05:18:25;1.60;;;0.90;;
76597;SDS011;65486;53.144;18.134;2023-08-07T05:20:52;2.40;;;0.90;;
76597;SDS011;65486;53.144;18.134;2023-08-07T05:23:19;2.10;;;1.20;;
76597;SDS011;65486;53.144;18.134;2023-08-07T05:25:45;3.30;;;1.30;;
76597;SDS011;65486;53.144;18.134;2023-08-07T05:28:13;2.00;;;1.20;;
76597;SDS011;65486;53.144;18.134;2023-08-07T05:30:39;2.40;;;1.00;;
76597;SDS011;65486;53.144;18.134;2023-08-07T05:33:06;1.70;;;1.00;;
76597;SDS011;65486;53.144;18.134;2023-08-07T05:35:34;3.90;;;1.00;;
76597;SDS011;65486;53.144;18.134;2023-08-07T05:38:00;2.20;;;1.10;;
76597;SDS011;65486;53.144;18.134;2023-08-07T05:40:29;1.70;;;1.00;;
76597;SDS011;65486;53.144;18.134;2023-08-07T05:42:57;3.50;;;1.10;;
76597;SDS011;65486;53.144;18.134;2023-08-07T05:45:23;3.00;;;1.20;;
76597;SDS011;65486;53.144;18.134;2023-08-07T05:47:51;2.40;;;1.10;;
76597;SDS011;65486;53.144;18.134;2023-08-07T05:50:17;2.20;;;1.10;;
76597;SDS011;65486;53.144;18.134;2023-08-07T05:52:43;2.60;;;1.10;;
76597;SDS011;65486;53.144;18.134;2023-08-07T05:55:09;2.90;;;1.00;;
76597;SDS011;65486;53.144;18.134;2023-08-07T05:57:36;1.80;;;1.00;;
76597;SDS011;65486;53.144;18.134;2023-08-07T06:00:03;2.10;;;0.90;;
76597;SDS011;65486;53.144;18.134;2023-08-07T06:02:39;2.10;;;0.90;;
76597;SDS011;65486;53.144;18.134;2023-08-07T06:05:05;1.90;;;1.30;;
76597;SDS011;65486;53.144;18.134;2023-08-07T06:07:32;2.30;;;1.10;;
76597;SDS011;65486;53.144;18.134;2023-08-07T06:09:59;2.60;;;1.00;;
76597;SDS011;65486;53.144;18.134;2023-08-07T06:12:25;2.40;;;1.20;;
76597;SDS011;65486;53.144;18.134;2023-08-07T06:14:52;3.50;;;1.60;;
76597;SDS011;65486;53.144;18.134;2023-08-07T06:17:18;2.70;;;1.50;;
76597;SDS011;65486;53.144;18.134;2023-08-07T06:19:44;3.20;;;1.80;;
76597;SDS011;65486;53.144;18.134;2023-08-07T06:22:11;3.40;;;2.00;;
76597;SDS011;65486;53.144;18.134;2023-08-07T06:24:37;3.20;;;1.80;;
76597;SDS011;65486;53.144;18.134;2023-08-07T06:27:03;3.90;;;1.70;;
76597;SDS011;65486;53.144;18.134;2023-08-07T06:29:30;3.10;;;1.50;;
76597;SDS011;65486;53.144;18.134;2023-08-07T06:31:56;3.60;;;1.40;;
76597;SDS011;65486;53.144;18.134;2023-08-07T06:34:22;4.90;;;1.30;;
76597;SDS011;65486;53.144;18.134;2023-08-07T06:36:49;2.90;;;1.50;;
76597;SDS011;65486;53.144;18.134;2023-08-07T06:39:16;5.00;;;1.80;;
76597;SDS011;65486;53.144;18.134;2023-08-07T06:41:42;4.40;;;2.00;;
76597;SDS011;65486;53.144;18.134;2023-08-07T06:44:09;4.20;;;2.00;;
76597;SDS011;65486;53.144;18.134;2023-08-07T06:46:35;4.00;;;1.90;;
76597;SDS011;65486;53.144;18.134;2023-08-07T06:49:01;4.30;;;1.80;;
76597;SDS011;65486;53.144;18.134;2023-08-07T06:51:28;3.20;;;1.30;;
76597;SDS011;65486;53.144;18.134;2023-08-07T06:53:55;2.70;;;1.80;;
76597;SDS011;65486;53.144;18.134;2023-08-07T06:56:22;3.70;;;1.80;;
76597;SDS011;65486;53.144;18.134;2023-08-07T06:58:48;3.90;;;1.20;;
76597;SDS011;65486;53.144;18.134;2023-08-07T07:01:19;7.90;;;2.20;;
76597;SDS011;65486;53.144;18.134;2023-08-07T07:03:48;5.00;;;1.80;;
76597;SDS011;65486;53.144;18.134;2023-08-07T07:06:19;5.60;;;2.20;;
76597;SDS011;65486;53.144;18.134;2023-08-07T07:08:46;3.80;;;1.50;;
76597;SDS011;65486;53.144;18.134;2023-08-07T07:11:12;4.90;;;1.90;;
76597;SDS011;65486;53.144;18.134;2023-08-07T07:13:39;3.50;;;1.80;;
76597;SDS011;65486;53.144;18.134;2023-08-07T07:16:06;3.70;;;1.70;;
76597;SDS011;65486;53.144;18.134;2023-08-07T07:18:33;6.00;;;1.90;;
76597;SDS011;65486;53.144;18.134;2023-08-07T07:20:59;6.80;;;1.80;;
76597;SDS011;65486;53.144;18.134;2023-08-07T07:23:28;4.50;;;1.20;;
76597;SDS011;65486;53.144;18.134;2023-08-07T07:25:55;5.30;;;1.30;;
76597;SDS011;65486;53.144;18.134;2023-08-07T07:28:22;5.20;;;1.50;;
76597;SDS011;65486;53.144;18.134;2023-08-07T07:30:50;4.00;;;1.60;;
76597;SDS011;65486;53.144;18.134;2023-08-07T07:33:17;3.20;;;1.30;;
76597;SDS011;65486;53.144;18.134;2023-08-07T07:35:44;7.60;;;1.90;;
76597;SDS011;65486;53.144;18.134;2023-08-07T07:38:14;4.80;;;1.30;;
76597;SDS011;65486;53.144;18.134;2023-08-07T07:40:41;3.90;;;1.60;;
76597;SDS011;65486;53.144;18.134;2023-08-07T07:43:08;2.80;;;1.60;;
76597;SDS011;65486;53.144;18.134;2023-08-07T07:45:43;3.10;;;1.30;;
76597;SDS011;65486;53.144;18.134;2023-08-07T07:48:15;3.40;;;1.00;;
76597;SDS011;65486;53.144;18.134;2023-08-07T07:50:42;2.80;;;1.50;;
76597;SDS011;65486;53.144;18.134;2023-08-07T07:53:10;3.30;;;1.40;;
76597;SDS011;65486;53.144;18.134;2023-08-07T07:55:38;5.00;;;1.40;;
76597;SDS011;65486;53.144;18.134;2023-08-07T07:58:07;5.00;;;1.60;;
76597;SDS011;65486;53.144;18.134;2023-08-07T08:00:33;4.10;;;1.60;;
76597;SDS011;65486;53.144;18.134;2023-08-07T08:02:59;3.10;;;1.40;;
76597;SDS011;65486;53.144;18.134;2023-08-07T08:05:26;3.30;;;1.30;;
76597;SDS011;65486;53.144;18.134;2023-08-07T08:07:56;2.50;;;1.20;;
76597;SDS011;65486;53.144;18.134;2023-08-07T08:10:23;2.60;;;1.50;;
76597;SDS011;65486;53.144;18.134;2023-08-07T08:12:49;2.40;;;1.40;;
76597;SDS011;65486;53.144;18.134;2023-08-07T08:15:24;2.90;;;1.30;;
76597;SDS011;65486;53.144;18.134;2023-08-07T08:17:51;2.90;;;1.50;;
76597;SDS011;65486;53.144;18.134;2023-08-07T08:20:18;2.60;;;1.20;;
76597;SDS011;65486;53.144;18.134;2023-08-07T08:22:45;2.10;;;1.00;;
76597;SDS011;65486;53.144;18.134;2023-08-07T08:25:13;2.20;;;1.40;;
76597;SDS011;65486;53.144;18.134;2023-08-07T08:27:39;2.40;;;1.30;;
76597;SDS011;65486;53.144;18.134;2023-08-07T08:30:06;2.00;;;1.30;;
76597;SDS011;65486;53.144;18.134;2023-08-07T08:32:36;4.50;;;1.40;;
76597;SDS011;65486;53.144;18.134;2023-08-07T08:35:04;3.10;;;1.60;;
76597;SDS011;65486;53.144;18.134;2023-08-07T08:37:38;3.80;;;1.30;;
76597;SDS011;65486;53.144;18.134;2023-08-07T08:40:08;1.80;;;1.10;;
76597;SDS011;65486;53.144;18.134;2023-08-07T08:42:50;2.20;;;1.30;;
76597;SDS011;65486;53.144;18.134;2023-08-07T08:45:19;3.80;;;1.20;;
76597;SDS011;65486;53.144;18.134;2023-08-07T08:47:47;2.20;;;1.10;;
76597;SDS011;65486;53.144;18.134;2023-08-07T08:50:26;2.10;;;1.30;;
76597;SDS011;65486;53.144;18.134;2023-08-07T08:52:53;2.80;;;1.10;;
76597;SDS011;65486;53.144;18.134;2023-08-07T08:55:21;3.70;;;1.60;;
76597;SDS011;65486;53.144;18.134;2023-08-07T08:57:49;3.00;;;1.40;;
76597;SDS011;65486;53.144;18.134;2023-08-07T09:00:16;2.10;;;1.30;;
76597;SDS011;65486;53.144;18.134;2023-08-07T09:02:49;3.10;;;0.80;;
76597;SDS011;65486;53.144;18.134;2023-08-07T09:05:18;2.90;;;1.50;;
76597;SDS011;65486;53.144;18.134;2023-08-07T09:07:46;4.00;;;1.20;;
76597;SDS011;65486;53.144;18.134;2023-08-07T09:10:17;1.90;;;1.00;;
76597;SDS011;65486;53.144;18.134;2023-08-07T09:12:45;2.80;;;1.00;;
76597;SDS011;65486;53.144;18.134;2023-08-07T09:15:29;2.50;;;1.40;;
76597;SDS011;65486;53.144;18.134;2023-08-07T09:17:57;2.60;;;0.80;;
76597;SDS011;65486;53.144;18.134;2023-08-07T09:20:29;2.80;;;1.40;;
76597;SDS011;65486;53.144;18.134;2023-08-07T09:22:56;2.90;;;1.10;;
76597;SDS011;65486;53.144;18.134;2023-08-07T09:25:29;2.70;;;1.30;;
76597;SDS011;65486;53.144;18.134;2023-08-07T09:27:57;2.80;;;1.30;;
76597;SDS011;65486;53.144;18.134;2023-08-07T09:30:28;3.20;;;1.20;;
76597;SDS011;65486;53.144;18.134;2023-08-07T09:33:01;3.90;;;1.30;;
76597;SDS011;65486;53.144;18.134;2023-08-07T09:35:31;2.60;;;1.30;;
76597;SDS011;65486;53.144;18.134;2023-08-07T09:38:18;2.60;;;1.10;;
76597;SDS011;65486;53.144;18.134;2023-08-07T09:40:44;4.60;;;1.40;;
76597;SDS011;65486;53.144;18.134;2023-08-07T09:43:20;3.40;;;0.90;;
76597;SDS011;65486;53.144;18.134;2023-08-07T09:45:51;2.10;;;1.30;;
76597;SDS011;65486;53.144;18.134;2023-08-07T09:48:24;3.80;;;1.00;;
76597;SDS011;65486;53.144;18.134;2023-08-07T09:50:51;3.60;;;1.20;;
76597;SDS011;65486;53.144;18.134;2023-08-07T09:53:25;2.90;;;0.80;;
76597;SDS011;65486;53.144;18.134;2023-08-07T09:55:54;2.40;;;1.10;;
76597;SDS011;65486;53.144;18.134;2023-08-07T09:58:26;2.70;;;1.20;;
76597;SDS011;65486;53.144;18.134;2023-08-07T10:00:54;3.70;;;1.00;;
76597;SDS011;65486;53.144;18.134;2023-08-07T10:03:25;4.50;;;1.00;;
76597;SDS011;65486;53.144;18.134;2023-08-07T10:05:53;2.70;;;1.10;;
76597;SDS011;65486;53.144;18.134;2023-08-07T10:08:21;1.80;;;1.10;;
76597;SDS011;65486;53.144;18.134;2023-08-07T10:10:52;2.80;;;1.20;;
76597;SDS011;65486;53.144;18.134;2023-08-07T10:13:19;1.50;;;1.00;;
76597;SDS011;65486;53.144;18.134;2023-08-07T10:15:52;3.80;;;1.10;;
76597;SDS011;65486;53.144;18.134;2023-08-07T10:18:19;2.20;;;1.10;;
76597;SDS011;65486;53.144;18.134;2023-08-07T10:20:56;4.70;;;0.80;;
76597;SDS011;65486;53.144;18.134;2023-08-07T10:23:27;1.90;;;1.30;;
76597;SDS011;65486;53.144;18.134;2023-08-07T10:25:57;2.20;;;1.20;;
76597;SDS011;65486;53.144;18.134;2023-08-07T10:28:46;4.90;;;1.20;;
76597;SDS011;65486;53.144;18.134;2023-08-07T10:31:34;2.90;;;1.20;;
76597;SDS011;65486;53.144;18.134;2023-08-07T10:34:12;3.30;;;1.20;;
76597;SDS011;65486;53.144;18.134;2023-08-07T10:36:53;3.10;;;1.40;;
76597;SDS011;65486;53.144;18.134;2023-08-07T10:39:19;3.50;;;1.40;;
76597;SDS011;65486;53.144;18.134;2023-08-07T10:42:01;2.60;;;1.30;;
76597;SDS011;65486;53.144;18.134;2023-08-07T10:44:30;2.60;;;1.40;;
76597;SDS011;65486;53.144;18.134;2023-08-07T10:47:02;4.00;;;1.70;;
76597;SDS011;65486;53.144;18.134;2023-08-07T10:52:09;2.40;;;1.40;;
76597;SDS011;65486;53.144;18.134;2023-08-07T10:54:50;4.70;;;1.70;;
76597;SDS011;65486;53.144;18.134;2023-08-07T10:57:17;3.90;;;1.70;;
76597;SDS011;65486;53.144;18.134;2023-08-07T10:59:48;3.40;;;1.30;;
76597;SDS011;65486;53.144;18.134;2023-08-07T11:02:29;4.30;;;1.60;;
76597;SDS011;65486;53.144;18.134;2023-08-07T11:04:56;3.30;;;1.90;;
76597;SDS011;65486;53.144;18.134;2023-08-07T11:07:24;3.80;;;1.60;;
76597;SDS011;65486;53.144;18.134;2023-08-07T11:09:53;4.70;;;1.90;;
76597;SDS011;65486;53.144;18.134;2023-08-07T11:12:20;4.00;;;1.50;;
76597;SDS011;65486;53.144;18.134;2023-08-07T11:14:47;3.70;;;1.80;;
76597;SDS011;65486;53.144;18.134;2023-08-07T11:17:14;5.90;;;1.80;;
76597;SDS011;65486;53.144;18.134;2023-08-07T11:19:42;8.80;;;1.70;;
76597;SDS011;65486;53.144;18.134;2023-08-07T11:22:09;2.80;;;1.40;;
76597;SDS011;65486;53.144;18.134;2023-08-07T11:24:35;2.30;;;1.40;;
76597;SDS011;65486;53.144;18.134;2023-08-07T11:27:03;2.50;;;1.80;;
76597;SDS011;65486;53.144;18.134;2023-08-07T11:29:32;4.50;;;1.70;;
76597;SDS011;65486;53.144;18.134;2023-08-07T11:31:59;3.50;;;1.60;;
76597;SDS011;65486;53.144;18.134;2023-08-07T11:34:25;4.80;;;2.10;;
76597;SDS011;65486;53.144;18.134;2023-08-07T11:36:52;3.60;;;1.60;;
76597;SDS011;65486;53.144;18.134;2023-08-07T11:39:25;3.40;;;1.80;;
76597;SDS011;65486;53.144;18.134;2023-08-07T11:41:52;4.40;;;2.00;;
76597;SDS011;65486;53.144;18.134;2023-08-07T11:44:23;3.10;;;1.70;;
76597;SDS011;65486;53.144;18.134;2023-08-07T11:46:51;3.50;;;1.50;;
76597;SDS011;65486;53.144;18.134;2023-08-07T11:49:17;3.50;;;1.90;;
76597;SDS011;65486;53.144;18.134;2023-08-07T11:51:45;2.90;;;1.50;;
76597;SDS011;65486;53.144;18.134;2023-08-07T11:54:13;2.90;;;1.80;;
76597;SDS011;65486;53.144;18.134;2023-08-07T11:56:41;3.20;;;1.70;;
76597;SDS011;65486;53.144;18.134;2023-08-07T11:59:09;3.70;;;2.00;;
76597;SDS011;65486;53.144;18.134;2023-08-07T12:01:37;3.00;;;1.90;;
76597;SDS011;65486;53.144;18.134;2023-08-07T12:06:34;2.70;;;1.70;;
76597;SDS011;65486;53.144;18.134;2023-08-07T12:09:02;3.00;;;1.60;;
76597;SDS011;65486;53.144;18.134;2023-08-07T12:11:29;4.50;;;1.80;;
76597;SDS011;65486;53.144;18.134;2023-08-07T12:13:59;3.30;;;1.40;;
76597;SDS011;65486;53.144;18.134;2023-08-07T12:16:26;4.90;;;1.60;;
76597;SDS011;65486;53.144;18.134;2023-08-07T12:18:52;4.10;;;1.20;;
76597;SDS011;65486;53.144;18.134;2023-08-07T12:21:22;2.40;;;1.10;;
76597;SDS011;65486;53.144;18.134;2023-08-07T12:23:50;4.10;;;1.30;;
76597;SDS011;65486;53.144;18.134;2023-08-07T12:26:17;3.90;;;1.40;;
76597;SDS011;65486;53.144;18.134;2023-08-07T12:28:44;3.20;;;1.40;;
76597;SDS011;65486;53.144;18.134;2023-08-07T12:31:12;3.10;;;1.20;;
76597;SDS011;65486;53.144;18.134;2023-08-07T12:33:40;4.10;;;1.40;;
76597;SDS011;65486;53.144;18.134;2023-08-07T12:36:08;2.20;;;1.10;;
76597;SDS011;65486;53.144;18.134;2023-08-07T12:38:37;2.20;;;1.10;;
76597;SDS011;65486;53.144;18.134;2023-08-07T12:41:03;3.10;;;1.60;;
76597;SDS011;65486;53.144;18.134;2023-08-07T12:43:29;3.10;;;1.40;;
76597;SDS011;65486;53.144;18.134;2023-08-07T12:45:55;3.90;;;1.40;;
76597;SDS011;65486;53.144;18.134;2023-08-07T12:48:22;2.60;;;1.10;;
76597;SDS011;65486;53.144;18.134;2023-08-07T12:50:49;4.10;;;1.60;;
76597;SDS011;65486;53.144;18.134;2023-08-07T12:53:15;3.70;;;1.10;;
76597;SDS011;65486;53.144;18.134;2023-08-07T12:55:41;3.20;;;1.50;;
76597;SDS011;65486;53.144;18.134;2023-08-07T12:58:08;3.60;;;1.50;;
76597;SDS011;65486;53.144;18.134;2023-08-07T13:00:35;3.10;;;1.10;;
76597;SDS011;65486;53.144;18.134;2023-08-07T13:03:01;4.90;;;1.10;;
76597;SDS011;65486;53.144;18.134;2023-08-07T13:05:28;4.70;;;2.00;;
76597;SDS011;65486;53.144;18.134;2023-08-07T13:07:56;3.60;;;1.50;;
76597;SDS011;65486;53.144;18.134;2023-08-07T13:10:25;4.30;;;1.30;;
76597;SDS011;65486;53.144;18.134;2023-08-07T13:12:56;2.10;;;1.10;;
76597;SDS011;65486;53.144;18.134;2023-08-07T13:15:22;2.60;;;1.10;;
76597;SDS011;65486;53.144;18.134;2023-08-07T13:17:48;3.80;;;1.30;;
76597;SDS011;65486;53.144;18.134;2023-08-07T13:20:15;3.30;;;1.70;;
76597;SDS011;65486;53.144;18.134;2023-08-07T13:22:42;2.60;;;1.30;;
76597;SDS011;65486;53.144;18.134;2023-08-07T13:25:10;6.00;;;1.70;;
76597;SDS011;65486;53.144;18.134;2023-08-07T13:27:38;2.30;;;1.50;;
76597;SDS011;65486;53.144;18.134;2023-08-07T13:30:05;2.40;;;1.40;;
76597;SDS011;65486;53.144;18.134;2023-08-07T13:32:39;2.50;;;1.60;;
76597;SDS011;65486;53.144;18.134;2023-08-07T13:35:06;3.00;;;1.50;;
76597;SDS011;65486;53.144;18.134;2023-08-07T13:37:32;3.60;;;1.30;;
76597;SDS011;65486;53.144;18.134;2023-08-07T13:40:01;3.50;;;1.70;;
76597;SDS011;65486;53.144;18.134;2023-08-07T13:42:29;3.20;;;1.80;;
76597;SDS011;65486;53.144;18.134;2023-08-07T13:44:57;3.10;;;1.80;;
76597;SDS011;65486;53.144;18.134;2023-08-07T13:47:25;3.10;;;1.20;;
76597;SDS011;65486;53.144;18.134;2023-08-07T13:49:55;6.10;;;1.50;;
76597;SDS011;65486;53.144;18.134;2023-08-07T13:52:22;4.00;;;1.80;;
76597;SDS011;65486;53.144;18.134;2023-08-07T13:54:48;3.60;;;1.50;;
76597;SDS011;65486;53.144;18.134;2023-08-07T13:57:16;3.10;;;1.40;;
76597;SDS011;65486;53.144;18.134;2023-08-07T13:59:42;3.90;;;1.60;;
76597;SDS011;65486;53.144;18.134;2023-08-07T14:02:09;2.30;;;1.40;;
76597;SDS011;65486;53.144;18.134;2023-08-07T14:04:35;4.50;;;1.40;;
76597;SDS011;65486;53.144;18.134;2023-08-07T14:07:01;2.20;;;1.20;;
76597;SDS011;65486;53.144;18.134;2023-08-07T14:09:30;2.30;;;1.40;;
76597;SDS011;65486;53.144;18.134;2023-08-07T14:11:56;5.50;;;1.30;;
76597;SDS011;65486;53.144;18.134;2023-08-07T14:14:22;4.20;;;1.40;;
76597;SDS011;65486;53.144;18.134;2023-08-07T14:16:49;3.30;;;1.00;;
76597;SDS011;65486;53.144;18.134;2023-08-07T14:19:15;2.70;;;1.10;;
76597;SDS011;65486;53.144;18.134;2023-08-07T14:21:41;5.00;;;1.30;;
76597;SDS011;65486;53.144;18.134;2023-08-07T14:24:07;3.50;;;1.60;;
76597;SDS011;65486;53.144;18.134;2023-08-07T14:26:35;4.70;;;1.10;;
76597;SDS011;65486;53.144;18.134;2023-08-07T14:29:01;2.60;;;1.00;;
76597;SDS011;65486;53.144;18.134;2023-08-07T14:31:27;3.90;;;0.90;;
76597;SDS011;65486;53.144;18.134;2023-08-07T14:33:55;2.70;;;1.20;;
76597;SDS011;65486;53.144;18.134;2023-08-07T14:36:22;4.10;;;1.10;;
76597;SDS011;65486;53.144;18.134;2023-08-07T14:38:50;3.40;;;1.20;;
76597;SDS011;65486;53.144;18.134;2023-08-07T14:41:17;3.70;;;1.40;;
76597;SDS011;65486;53.144;18.134;2023-08-07T14:43:44;5.30;;;1.40;;
76597;SDS011;65486;53.144;18.134;2023-08-07T14:46:12;3.10;;;1.10;;
76597;SDS011;65486;53.144;18.134;2023-08-07T14:48:39;2.90;;;1.40;;